sensor_id;sensor_type;location;lat;lon;timestamp;pressure;altitude;pressure_sealevel;temperature;humidity
14041;BME280;7095;51.388;6.196;2023-03-25T00:01:27;55105.84;;;-145.32;100.00
14041;BME280;7095;51.388;6.196;2023-03-25T00:03:56;55042.19;;;-145.32;100.00
14041;BME280;7095;51.388;6.196;2023-03-25T00:06:25;55048.16;;;-145.32;100.00
14041;BME280;7095;51.388;6.196;2023-03-25T00:08:54;55024.28;;;-145.32;100.00
14041;BME280;7095;51.388;6.196;2023-03-25T00:11:22;55038.22;;;-145.32;100.00
14041;BME280;7095;51.388;6.196;2023-03-25T00:13:51;55048.16;;;-145.32;100.00
14041;BME280;7095;51.388;6.196;2023-03-25T00:16:22;55026.28;;;-145.32;100.00
14041;BME280;7095;51.388;6.196;2023-03-25T00:18:53;55093.91;;;-145.32;100.00
14041;BME280;7095;51.388;6.196;2023-03-25T00:21:21;55089.94;;;-145.32;100.00
14041;BME280;7095;51.388;6.196;2023-03-25T00:23:50;55107.81;;;-145.32;100.00
14041;BME280;7095;51.388;6.196;2023-03-25T00:26:18;55048.16;;;-145.32;100.00
14041;BME280;7095;51.388;6.196;2023-03-25T00:28:47;55028.25;;;-145.32;100.00
14041;BME280;7095;51.388;6.196;2023-03-25T00:31:15;55076.00;;;-145.32;100.00
14041;BME280;7095;51.388;6.196;2023-03-25T00:33:45;55046.16;;;-145.32;100.00
14041;BME280;7095;51.388;6.196;2023-03-25T00:36:16;55046.16;;;-145.32;100.00
14041;BME280;7095;51.388;6.196;2023-03-25T00:38:47;55026.28;;;-145.32;100.00
14041;BME280;7095;51.388;6.196;2023-03-25T00:41:19;55050.16;;;-145.32;100.00
14041;BME280;7095;51.388;6.196;2023-03-25T00:43:51;55034.22;;;-145.32;100.00
14041;BME280;7095;51.388;6.196;2023-03-25T00:46:21;55030.25;;;-145.32;100.00
14041;BME280;7095;51.388;6.196;2023-03-25T00:48:52;55066.06;;;-145.32;100.00
14041;BME280;7095;51.388;6.196;2023-03-25T00:51:21;55062.09;;;-145.32;100.00
14041;BME280;7095;51.388;6.196;2023-03-25T00:53:51;55054.13;;;-145.32;100.00
14041;BME280;7095;51.388;6.196;2023-03-25T00:56:21;55105.84;;;-145.32;100.00
14041;BME280;7095;51.388;6.196;2023-03-25T00:58:51;55062.09;;;-145.32;100.00
14041;BME280;7095;51.388;6.196;2023-03-25T01:01:21;55016.34;;;-145.32;100.00
14041;BME280;7095;51.388;6.196;2023-03-25T01:03:56;54974.56;;;-145.32;100.00
14041;BME280;7095;51.388;6.196;2023-03-25T01:06:26;55004.41;;;-145.32;100.00
14041;BME280;7095;51.388;6.196;2023-03-25T01:08:56;54926.84;;;-145.32;100.00
14041;BME280;7095;51.388;6.196;2023-03-25T01:11:30;54875.13;;;-145.32;100.00
14041;BME280;7095;51.388;6.196;2023-03-25T01:14:03;54857.22;;;-145.32;100.00
14041;BME280;7095;51.388;6.196;2023-03-25T01:16:32;54817.44;;;-145.32;100.00
14041;BME280;7095;51.388;6.196;2023-03-25T01:19:02;54771.69;;;-145.32;100.00
14041;BME280;7095;51.388;6.196;2023-03-25T01:21:31;54747.84;;;-145.32;100.00
14041;BME280;7095;51.388;6.196;2023-03-25T01:24:02;54672.25;;;-145.32;100.00
14041;BME280;7095;51.388;6.196;2023-03-25T01:26:31;54640.44;;;-145.32;100.00
14041;BME280;7095;51.388;6.196;2023-03-25T01:29:00;54648.41;;;-145.32;100.00
14041;BME280;7095;51.388;6.196;2023-03-25T01:31:30;54604.66;;;-145.32;100.00
14041;BME280;7095;51.388;6.196;2023-03-25T01:33:58;54588.75;;;-145.32;100.00
14041;BME280;7095;51.388;6.196;2023-03-25T01:36:28;54596.69;;;-145.32;100.00
14041;BME280;7095;51.388;6.196;2023-03-25T01:39:00;54616.56;;;-145.32;100.00
14041;BME280;7095;51.388;6.196;2023-03-25T01:41:34;54576.81;;;-145.32;100.00
14041;BME280;7095;51.388;6.196;2023-03-25T01:47:23;54550.94;;;-145.32;100.00
14041;BME280;7095;51.388;6.196;2023-03-25T01:49:52;54552.94;;;-145.32;100.00
14041;BME280;7095;51.388;6.196;2023-03-25T01:52:25;54521.13;;;-145.32;100.00
14041;BME280;7095;51.388;6.196;2023-03-25T01:54:58;54584.75;;;-145.32;100.00
14041;BME280;7095;51.388;6.196;2023-03-25T01:57:27;54554.94;;;-145.32;100.00
14041;BME280;7095;51.388;6.196;2023-03-25T01:59:57;54620.56;;;-145.32;100.00
14041;BME280;7095;51.388;6.196;2023-03-25T02:02:27;54588.75;;;-145.32;100.00
14041;BME280;7095;51.388;6.196;2023-03-25T02:05:03;54580.78;;;-145.32;100.00
14041;BME280;7095;51.388;6.196;2023-03-25T02:07:40;54606.63;;;-145.32;100.00
14041;BME280;7095;51.388;6.196;2023-03-25T02:10:14;54600.66;;;-145.32;100.00
14041;BME280;7095;51.388;6.196;2023-03-25T02:12:43;54620.56;;;-145.32;100.00
14041;BME280;7095;51.388;6.196;2023-03-25T02:15:16;54662.31;;;-145.32;100.00
14041;BME280;7095;51.388;6.196;2023-03-25T02:18:11;54731.94;;;-145.32;100.00
14041;BME280;7095;51.388;6.196;2023-03-25T02:21:14;54680.22;;;-145.32;100.00
14041;BME280;7095;51.388;6.196;2023-03-25T02:24:24;54739.88;;;-145.32;100.00
14041;BME280;7095;51.388;6.196;2023-03-25T02:27:21;54819.44;;;-145.32;100.00
14041;BME280;7095;51.388;6.196;2023-03-25T02:39:29;54839.31;;;-145.32;100.00
14041;BME280;7095;51.388;6.196;2023-03-25T02:42:03;54853.25;;;-145.32;100.00
14041;BME280;7095;51.388;6.196;2023-03-25T02:44:40;54859.22;;;-145.32;100.00
14041;BME280;7095;51.388;6.196;2023-03-25T02:47:16;54877.09;;;-145.32;100.00
14041;BME280;7095;51.388;6.196;2023-03-25T02:49:50;54906.94;;;-145.32;100.00
14041;BME280;7095;51.388;6.196;2023-03-25T02:52:24;54994.47;;;-145.32;100.00
14041;BME280;7095;51.388;6.196;2023-03-25T02:55:00;55060.09;;;-145.32;100.00
14041;BME280;7095;51.388;6.196;2023-03-25T02:57:33;55129.69;;;-145.32;100.00
14041;BME280;7095;51.388;6.196;2023-03-25T03:00:05;55197.34;;;-145.32;100.00
14041;BME280;7095;51.388;6.196;2023-03-25T03:02:43;55300.75;;;-145.32;100.00
14041;BME280;7095;51.388;6.196;2023-03-25T03:05:24;55324.63;;;-145.32;100.00
14041;BME280;7095;51.388;6.196;2023-03-25T03:08:01;55326.63;;;-145.32;100.00
14041;BME280;7095;51.388;6.196;2023-03-25T03:10:41;55328.63;;;-145.32;100.00
14041;BME280;7095;51.388;6.196;2023-03-25T03:13:20;55422.09;;;-145.32;100.00
14041;BME280;7095;51.388;6.196;2023-03-25T03:15:55;55493.72;;;-145.32;100.00
14041;BME280;7095;51.388;6.196;2023-03-25T03:18:34;55543.44;;;-145.32;100.00
14041;BME280;7095;51.388;6.196;2023-03-25T03:21:11;55627.00;;;-145.32;100.00
14041;BME280;7095;51.388;6.196;2023-03-25T03:23:51;55770.22;;;-145.32;100.00
14041;BME280;7095;51.388;6.196;2023-03-25T03:26:28;55901.53;;;-145.32;100.00
14041;BME280;7095;51.388;6.196;2023-03-25T03:29:04;56044.78;;;-145.32;100.00
14041;BME280;7095;51.388;6.196;2023-03-25T03:31:39;56092.53;;;-145.32;100.00
14041;BME280;7095;51.388;6.196;2023-03-25T03:34:32;56132.31;;;-145.32;100.00
14041;BME280;7095;51.388;6.196;2023-03-25T03:37:03;56152.22;;;-145.32;100.00
14041;BME280;7095;51.388;6.196;2023-03-25T03:39:35;56162.16;;;-145.32;100.00
14041;BME280;7095;51.388;6.196;2023-03-25T03:42:12;56184.06;;;-145.32;100.00
14041;BME280;7095;51.388;6.196;2023-03-25T03:44:45;56144.25;;;-145.32;100.00
14041;BME280;7095;51.388;6.196;2023-03-25T03:47:23;56132.31;;;-145.32;100.00
14041;BME280;7095;51.388;6.196;2023-03-25T03:49:56;56088.53;;;-145.32;100.00
14041;BME280;7095;51.388;6.196;2023-03-25T03:52:30;56056.72;;;-145.32;100.00
14041;BME280;7095;51.388;6.196;2023-03-25T03:55:04;55893.56;;;-145.32;100.00
14041;BME280;7095;51.388;6.196;2023-03-25T03:57:41;55837.88;;;-145.32;100.00
14041;BME280;7095;51.388;6.196;2023-03-25T04:00:15;55849.81;;;-145.32;100.00
14041;BME280;7095;51.388;6.196;2023-03-25T04:02:48;55800.06;;;-145.32;100.00
14041;BME280;7095;51.388;6.196;2023-03-25T04:05:19;55821.94;;;-145.32;100.00
14041;BME280;7095;51.388;6.196;2023-03-25T04:07:53;55804.06;;;-145.32;100.00
14041;BME280;7095;51.388;6.196;2023-03-25T04:10:28;55770.22;;;-145.32;100.00
14041;BME280;7095;51.388;6.196;2023-03-25T04:13:04;55599.16;;;-145.32;100.00
14041;BME280;7095;51.388;6.196;2023-03-25T04:15:36;55619.03;;;-145.32;100.00
14041;BME280;7095;51.388;6.196;2023-03-25T04:18:05;55575.28;;;-145.32;100.00
14041;BME280;7095;51.388;6.196;2023-03-25T04:20:34;55483.78;;;-145.32;100.00
14041;BME280;7095;51.388;6.196;2023-03-25T04:23:03;55517.59;;;-145.32;100.00
14041;BME280;7095;51.388;6.196;2023-03-25T04:25:32;55479.78;;;-145.32;100.00
14041;BME280;7095;51.388;6.196;2023-03-25T04:28:02;55491.72;;;-145.32;100.00
14041;BME280;7095;51.388;6.196;2023-03-25T04:30:31;55443.97;;;-145.32;100.00
14041;BME280;7095;51.388;6.196;2023-03-25T04:32:59;55384.31;;;-145.32;100.00
14041;BME280;7095;51.388;6.196;2023-03-25T04:35:28;55352.47;;;-145.32;100.00
14041;BME280;7095;51.388;6.196;2023-03-25T04:37:59;55209.25;;;-145.32;100.00
14041;BME280;7095;51.388;6.196;2023-03-25T04:40:30;55117.78;;;-145.32;100.00
14041;BME280;7095;51.388;6.196;2023-03-25T04:42:58;55123.75;;;-145.32;100.00
14041;BME280;7095;51.388;6.196;2023-03-25T04:45:28;55010.38;;;-145.32;100.00
14041;BME280;7095;51.388;6.196;2023-03-25T04:48:02;55004.41;;;-145.32;100.00
14041;BME280;7095;51.388;6.196;2023-03-25T04:50:32;54950.69;;;-145.32;100.00
14041;BME280;7095;51.388;6.196;2023-03-25T04:53:01;54885.06;;;-145.32;100.00
14041;BME280;7095;51.388;6.196;2023-03-25T04:55:31;54847.28;;;-145.32;100.00
14041;BME280;7095;51.388;6.196;2023-03-25T04:58:00;54855.22;;;-145.32;100.00
14041;BME280;7095;51.388;6.196;2023-03-25T05:00:30;54906.94;;;-145.32;100.00
14041;BME280;7095;51.388;6.196;2023-03-25T05:03:01;54960.66;;;-145.32;100.00
14041;BME280;7095;51.388;6.196;2023-03-25T05:05:30;54998.44;;;-145.32;100.00
14041;BME280;7095;51.388;6.196;2023-03-25T05:07:58;55020.31;;;-145.32;100.00
14041;BME280;7095;51.388;6.196;2023-03-25T05:10:27;55076.00;;;-145.32;100.00
14041;BME280;7095;51.388;6.196;2023-03-25T05:13:00;55113.78;;;-145.32;100.00
14041;BME280;7095;51.388;6.196;2023-03-25T05:15:31;55123.75;;;-145.32;100.00
14041;BME280;7095;51.388;6.196;2023-03-25T05:18:01;55133.69;;;-145.32;100.00
14041;BME280;7095;51.388;6.196;2023-03-25T05:20:30;55095.88;;;-145.32;100.00
14041;BME280;7095;51.388;6.196;2023-03-25T05:23:01;55121.75;;;-145.32;100.00
14041;BME280;7095;51.388;6.196;2023-03-25T05:25:30;55062.09;;;-145.32;100.00
14041;BME280;7095;51.388;6.196;2023-03-25T05:28:00;55097.88;;;-145.32;100.00
14041;BME280;7095;51.388;6.196;2023-03-25T05:30:33;55036.22;;;-145.32;100.00
14041;BME280;7095;51.388;6.196;2023-03-25T05:33:05;55038.22;;;-145.32;100.00
14041;BME280;7095;51.388;6.196;2023-03-25T05:35:34;54976.56;;;-145.32;100.00
14041;BME280;7095;51.388;6.196;2023-03-25T05:38:04;54974.56;;;-145.32;100.00
14041;BME280;7095;51.388;6.196;2023-03-25T05:40:34;54934.78;;;-145.32;100.00
14041;BME280;7095;51.388;6.196;2023-03-25T05:43:04;54902.97;;;-145.32;100.00
14041;BME280;7095;51.388;6.196;2023-03-25T05:45:35;54885.06;;;-145.32;100.00
14041;BME280;7095;51.388;6.196;2023-03-25T05:48:05;54893.03;;;-145.32;100.00
14041;BME280;7095;51.388;6.196;2023-03-25T05:50:35;54900.97;;;-145.32;100.00
14041;BME280;7095;51.388;6.196;2023-03-25T05:53:04;54853.25;;;-145.32;100.00
14041;BME280;7095;51.388;6.196;2023-03-25T05:55:32;54853.25;;;-145.32;100.00
14041;BME280;7095;51.388;6.196;2023-03-25T05:58:05;54869.16;;;-145.32;100.00
14041;BME280;7095;51.388;6.196;2023-03-25T06:00:35;54897.00;;;-145.32;100.00
14041;BME280;7095;51.388;6.196;2023-03-25T06:03:05;54966.59;;;-145.32;100.00
14041;BME280;7095;51.388;6.196;2023-03-25T06:05:37;54958.66;;;-145.32;100.00
14041;BME280;7095;51.388;6.196;2023-03-25T06:08:07;55004.41;;;-145.32;100.00
14041;BME280;7095;51.388;6.196;2023-03-25T06:10:38;54968.59;;;-145.32;100.00
14041;BME280;7095;51.388;6.196;2023-03-25T06:13:06;54962.63;;;-145.32;100.00
14041;BME280;7095;51.388;6.196;2023-03-25T06:15:38;54980.53;;;-145.32;100.00
14041;BME280;7095;51.388;6.196;2023-03-25T06:18:07;54966.59;;;-145.32;100.00
14041;BME280;7095;51.388;6.196;2023-03-25T06:20:36;54930.81;;;-145.32;100.00
14041;BME280;7095;51.388;6.196;2023-03-25T06:23:05;54887.06;;;-145.32;100.00
14041;BME280;7095;51.388;6.196;2023-03-25T06:25:33;54936.78;;;-145.32;100.00
14041;BME280;7095;51.388;6.196;2023-03-25T06:28:02;54916.88;;;-145.32;100.00
14041;BME280;7095;51.388;6.196;2023-03-25T06:30:31;54906.94;;;-145.32;100.00
14041;BME280;7095;51.388;6.196;2023-03-25T06:33:01;54938.75;;;-145.32;100.00
14041;BME280;7095;51.388;6.196;2023-03-25T06:35:32;54916.88;;;-145.32;100.00
14041;BME280;7095;51.388;6.196;2023-03-25T06:38:00;54970.59;;;-145.32;100.00
14041;BME280;7095;51.388;6.196;2023-03-25T06:40:40;54954.69;;;-145.32;100.00
14041;BME280;7095;51.388;6.196;2023-03-25T06:43:13;54990.47;;;-145.32;100.00
14041;BME280;7095;51.388;6.196;2023-03-25T06:46:05;55018.31;;;-145.32;100.00
14041;BME280;7095;51.388;6.196;2023-03-25T06:49:11;54948.72;;;-145.32;100.00
14041;BME280;7095;51.388;6.196;2023-03-25T06:51:41;54899.00;;;-145.32;100.00
14041;BME280;7095;51.388;6.196;2023-03-25T06:54:09;54910.91;;;-145.32;100.00
14041;BME280;7095;51.388;6.196;2023-03-25T06:56:40;54875.13;;;-145.32;100.00
14041;BME280;7095;51.388;6.196;2023-03-25T06:59:09;54831.38;;;-145.32;100.00
14041;BME280;7095;51.388;6.196;2023-03-25T07:01:38;54823.41;;;-145.32;100.00
14041;BME280;7095;51.388;6.196;2023-03-25T07:04:07;54801.53;;;-145.32;100.00
14041;BME280;7095;51.388;6.196;2023-03-25T07:06:36;54753.81;;;-145.32;100.00
14041;BME280;7095;51.388;6.196;2023-03-25T07:09:05;54735.91;;;-145.32;100.00
14041;BME280;7095;51.388;6.196;2023-03-25T07:11:38;54664.31;;;-145.32;100.00
14041;BME280;7095;51.388;6.196;2023-03-25T07:14:06;54684.19;;;-145.32;100.00
14041;BME280;7095;51.388;6.196;2023-03-25T07:16:35;54642.44;;;-145.32;100.00
14041;BME280;7095;51.388;6.196;2023-03-25T07:19:04;54562.88;;;-145.32;100.00
14041;BME280;7095;51.388;6.196;2023-03-25T07:21:32;54505.22;;;-145.32;100.00
14041;BME280;7095;51.388;6.196;2023-03-25T07:24:02;54437.59;;;-145.32;100.00
14041;BME280;7095;51.388;6.196;2023-03-25T07:26:31;54415.72;;;-145.32;100.00
14041;BME280;7095;51.388;6.196;2023-03-25T07:29:00;54401.81;;;-145.32;100.00
14041;BME280;7095;51.388;6.196;2023-03-25T07:31:32;54385.91;;;-145.32;100.00
14041;BME280;7095;51.388;6.196;2023-03-25T07:34:01;54318.28;;;-145.32;100.00
14041;BME280;7095;51.388;6.196;2023-03-25T07:36:29;54318.28;;;-145.32;100.00
14041;BME280;7095;51.388;6.196;2023-03-25T07:38:58;54282.50;;;-145.32;100.00
14041;BME280;7095;51.388;6.196;2023-03-25T07:41:28;54216.88;;;-145.32;100.00
14041;BME280;7095;51.388;6.196;2023-03-25T07:44:19;54206.94;;;-145.32;100.00
14041;BME280;7095;51.388;6.196;2023-03-25T07:46:49;54173.13;;;-145.32;100.00
14041;BME280;7095;51.388;6.196;2023-03-25T07:49:18;54167.16;;;-145.32;100.00
14041;BME280;7095;51.388;6.196;2023-03-25T07:51:46;54143.28;;;-145.32;100.00
14041;BME280;7095;51.388;6.196;2023-03-25T07:54:15;54161.19;;;-145.32;100.00
14041;BME280;7095;51.388;6.196;2023-03-25T07:56:45;54139.31;;;-145.32;100.00
14041;BME280;7095;51.388;6.196;2023-03-25T07:59:13;54123.41;;;-145.32;100.00
14041;BME280;7095;51.388;6.196;2023-03-25T08:01:41;54079.66;;;-145.32;100.00
14041;BME280;7095;51.388;6.196;2023-03-25T08:04:10;54131.38;;;-145.32;100.00
14041;BME280;7095;51.388;6.196;2023-03-25T08:06:39;54105.50;;;-145.32;100.00
14041;BME280;7095;51.388;6.196;2023-03-25T08:09:08;54071.72;;;-145.32;100.00
14041;BME280;7095;51.388;6.196;2023-03-25T08:11:37;54047.84;;;-145.32;100.00
14041;BME280;7095;51.388;6.196;2023-03-25T08:14:06;54059.78;;;-145.32;100.00
14041;BME280;7095;51.388;6.196;2023-03-25T08:16:35;54037.91;;;-145.32;100.00
14041;BME280;7095;51.388;6.196;2023-03-25T08:19:03;54071.72;;;-145.32;100.00
14041;BME280;7095;51.388;6.196;2023-03-25T08:21:32;54067.75;;;-145.32;100.00
14041;BME280;7095;51.388;6.196;2023-03-25T08:24:00;54049.84;;;-145.32;100.00
14041;BME280;7095;51.388;6.196;2023-03-25T08:26:31;54057.78;;;-145.32;100.00
14041;BME280;7095;51.388;6.196;2023-03-25T08:29:00;54055.81;;;-145.32;100.00
14041;BME280;7095;51.388;6.196;2023-03-25T08:31:32;54067.75;;;-145.32;100.00
14041;BME280;7095;51.388;6.196;2023-03-25T08:34:03;54012.06;;;-145.32;100.00
14041;BME280;7095;51.388;6.196;2023-03-25T08:36:32;54035.91;;;-145.32;100.00
14041;BME280;7095;51.388;6.196;2023-03-25T08:39:00;54025.97;;;-145.32;100.00
14041;BME280;7095;51.388;6.196;2023-03-25T08:41:33;54069.72;;;-145.32;100.00
14041;BME280;7095;51.388;6.196;2023-03-25T08:44:03;54027.97;;;-145.32;100.00
14041;BME280;7095;51.388;6.196;2023-03-25T08:46:34;54045.88;;;-145.32;100.00
14041;BME280;7095;51.388;6.196;2023-03-25T08:49:03;54059.78;;;-145.32;100.00
14041;BME280;7095;51.388;6.196;2023-03-25T08:51:32;54087.63;;;-145.32;100.00
14041;BME280;7095;51.388;6.196;2023-03-25T08:54:00;54053.81;;;-145.32;100.00
14041;BME280;7095;51.388;6.196;2023-03-25T08:56:29;54061.78;;;-145.32;100.00
14041;BME280;7095;51.388;6.196;2023-03-25T08:58:58;54075.69;;;-145.32;100.00
14041;BME280;7095;51.388;6.196;2023-03-25T09:01:27;54065.75;;;-145.32;100.00
14041;BME280;7095;51.388;6.196;2023-03-25T09:03:59;54063.75;;;-145.32;100.00
14041;BME280;7095;51.388;6.196;2023-03-25T09:06:27;54047.84;;;-145.32;100.00
14041;BME280;7095;51.388;6.196;2023-03-25T09:09:14;54024.00;;;-145.32;100.00
14041;BME280;7095;51.388;6.196;2023-03-25T09:11:44;53996.16;;;-145.32;100.00
14041;BME280;7095;51.388;6.196;2023-03-25T09:14:13;53998.16;;;-145.32;100.00
14041;BME280;7095;51.388;6.196;2023-03-25T09:16:44;53968.31;;;-145.32;100.00
14041;BME280;7095;51.388;6.196;2023-03-25T09:19:14;53946.44;;;-145.32;100.00
14041;BME280;7095;51.388;6.196;2023-03-25T09:21:43;53930.53;;;-145.32;100.00
14041;BME280;7095;51.388;6.196;2023-03-25T09:24:11;53958.38;;;-145.32;100.00
14041;BME280;7095;51.388;6.196;2023-03-25T09:26:40;53996.16;;;-145.32;100.00
14041;BME280;7095;51.388;6.196;2023-03-25T09:29:08;54012.06;;;-145.32;100.00
14041;BME280;7095;51.388;6.196;2023-03-25T09:31:37;54024.00;;;-145.32;100.00
14041;BME280;7095;51.388;6.196;2023-03-25T09:34:05;54037.91;;;-145.32;100.00
14041;BME280;7095;51.388;6.196;2023-03-25T09:36:35;54079.66;;;-145.32;100.00
14041;BME280;7095;51.388;6.196;2023-03-25T09:39:05;54089.59;;;-145.32;100.00
14041;BME280;7095;51.388;6.196;2023-03-25T09:41:56;54111.47;;;-145.32;100.00
14041;BME280;7095;51.388;6.196;2023-03-25T09:44:30;54163.19;;;-145.32;100.00
14041;BME280;7095;51.388;6.196;2023-03-25T09:47:02;54075.69;;;-145.32;100.00
14041;BME280;7095;51.388;6.196;2023-03-25T09:49:37;54057.78;;;-145.32;100.00
14041;BME280;7095;51.388;6.196;2023-03-25T09:52:14;54071.72;;;-145.32;100.00
14041;BME280;7095;51.388;6.196;2023-03-25T09:54:46;54043.88;;;-145.32;100.00
14041;BME280;7095;51.388;6.196;2023-03-25T09:57:19;54039.91;;;-145.32;100.00
14041;BME280;7095;51.388;6.196;2023-03-25T09:59:49;54016.03;;;-145.32;100.00
14041;BME280;7095;51.388;6.196;2023-03-25T10:02:28;53996.16;;;-145.32;100.00
14041;BME280;7095;51.388;6.196;2023-03-25T10:05:20;54059.78;;;-145.32;100.00
14041;BME280;7095;51.388;6.196;2023-03-25T10:08:03;54022.00;;;-145.32;100.00
14041;BME280;7095;51.388;6.196;2023-03-25T10:10:36;54006.09;;;-145.32;100.00
14041;BME280;7095;51.388;6.196;2023-03-25T10:13:12;54008.09;;;-145.32;100.00
14041;BME280;7095;51.388;6.196;2023-03-25T10:15:50;54004.09;;;-145.32;100.00
14041;BME280;7095;51.388;6.196;2023-03-25T10:18:33;53984.22;;;-145.32;100.00
14041;BME280;7095;51.388;6.196;2023-03-25T10:21:08;53984.22;;;-145.32;100.00
14041;BME280;7095;51.388;6.196;2023-03-25T10:23:45;53986.22;;;-145.32;100.00
14041;BME280;7095;51.388;6.196;2023-03-25T10:26:23;53964.34;;;-145.32;100.00
14041;BME280;7095;51.388;6.196;2023-03-25T10:28:56;53988.19;;;-145.32;100.00
14041;BME280;7095;51.388;6.196;2023-03-25T10:31:29;53944.47;;;-145.32;100.00
14041;BME280;7095;51.388;6.196;2023-03-25T10:34:02;53910.66;;;-145.32;100.00
14041;BME280;7095;51.388;6.196;2023-03-25T10:36:35;53938.50;;;-145.32;100.00
14041;BME280;7095;51.388;6.196;2023-03-25T10:39:15;53932.53;;;-145.32;100.00
14041;BME280;7095;51.388;6.196;2023-03-25T10:41:47;53934.50;;;-145.32;100.00
14041;BME280;7095;51.388;6.196;2023-03-25T10:44:20;53992.19;;;-145.32;100.00
14041;BME280;7095;51.388;6.196;2023-03-25T10:46:53;53994.16;;;-145.32;100.00
14041;BME280;7095;51.388;6.196;2023-03-25T10:49:26;54035.91;;;-145.32;100.00
14041;BME280;7095;51.388;6.196;2023-03-25T10:51:56;54035.91;;;-145.32;100.00
14041;BME280;7095;51.388;6.196;2023-03-25T10:54:29;54055.81;;;-145.32;100.00
14041;BME280;7095;51.388;6.196;2023-03-25T10:57:01;54059.78;;;-145.32;100.00
14041;BME280;7095;51.388;6.196;2023-03-25T10:59:34;54071.72;;;-145.32;100.00
14041;BME280;7095;51.388;6.196;2023-03-25T11:02:11;54025.97;;;-145.32;100.00
14041;BME280;7095;51.388;6.196;2023-03-25T11:04:42;54037.91;;;-145.32;100.00
14041;BME280;7095;51.388;6.196;2023-03-25T11:07:15;54016.03;;;-145.32;100.00
14041;BME280;7095;51.388;6.196;2023-03-25T11:09:46;54027.97;;;-145.32;100.00
14041;BME280;7095;51.388;6.196;2023-03-25T11:12:21;53986.22;;;-145.32;100.00
14041;BME280;7095;51.388;6.196;2023-03-25T11:15:12;53940.47;;;-145.32;100.00
14041;BME280;7095;51.388;6.196;2023-03-25T11:17:42;53892.75;;;-145.32;100.00
14041;BME280;7095;51.388;6.196;2023-03-25T11:20:18;53854.97;;;-145.32;100.00
14041;BME280;7095;51.388;6.196;2023-03-25T11:22:50;53839.06;;;-145.32;100.00
14041;BME280;7095;51.388;6.196;2023-03-25T11:25:28;53789.38;;;-145.32;100.00
14041;BME280;7095;51.388;6.196;2023-03-25T11:27:58;53783.41;;;-145.32;100.00
14041;BME280;7095;51.388;6.196;2023-03-25T11:30:28;53777.44;;;-145.32;100.00
14041;BME280;7095;51.388;6.196;2023-03-25T11:32:59;53729.72;;;-145.32;100.00
14041;BME280;7095;51.388;6.196;2023-03-25T11:35:32;53769.50;;;-145.32;100.00
14041;BME280;7095;51.388;6.196;2023-03-25T11:38:14;53737.69;;;-145.32;100.00
14041;BME280;7095;51.388;6.196;2023-03-25T11:40:52;53719.78;;;-145.32;100.00
14041;BME280;7095;51.388;6.196;2023-03-25T11:43:22;53737.69;;;-145.32;100.00
14041;BME280;7095;51.388;6.196;2023-03-25T11:45:52;53701.88;;;-145.32;100.00
14041;BME280;7095;51.388;6.196;2023-03-25T11:48:23;53729.72;;;-145.32;100.00
14041;BME280;7095;51.388;6.196;2023-03-25T11:50:58;53727.75;;;-145.32;100.00
14041;BME280;7095;51.388;6.196;2023-03-25T11:53:31;53725.75;;;-145.32;100.00
14041;BME280;7095;51.388;6.196;2023-03-25T11:56:03;53737.69;;;-145.32;100.00
14041;BME280;7095;51.388;6.196;2023-03-25T11:58:38;53789.38;;;-145.32;100.00
14041;BME280;7095;51.388;6.196;2023-03-25T12:01:20;53849.03;;;-145.32;100.00
14041;BME280;7095;51.388;6.196;2023-03-25T12:03:50;53978.25;;;-145.32;100.00
14041;BME280;7095;51.388;6.196;2023-03-25T12:06:20;54006.09;;;-145.32;100.00
14041;BME280;7095;51.388;6.196;2023-03-25T12:08:51;54020.00;;;-145.32;100.00
14041;BME280;7095;51.388;6.196;2023-03-25T12:11:23;54065.75;;;-145.32;100.00
14041;BME280;7095;51.388;6.196;2023-03-25T12:14:09;54035.91;;;-145.32;100.00
14041;BME280;7095;51.388;6.196;2023-03-25T12:16:44;53966.34;;;-145.32;100.00
14041;BME280;7095;51.388;6.196;2023-03-25T12:19:23;53829.13;;;-145.32;100.00
14041;BME280;7095;51.388;6.196;2023-03-25T12:22:15;53799.31;;;-145.32;100.00
14041;BME280;7095;51.388;6.196;2023-03-25T12:25:00;53823.16;;;-145.32;100.00
14041;BME280;7095;51.388;6.196;2023-03-25T12:27:42;53886.78;;;-145.32;100.00
14041;BME280;7095;51.388;6.196;2023-03-25T12:30:25;53942.47;;;-145.32;100.00
14041;BME280;7095;51.388;6.196;2023-03-25T12:33:08;54059.78;;;-145.32;100.00
14041;BME280;7095;51.388;6.196;2023-03-25T12:35:45;54262.59;;;-145.32;100.00
14041;BME280;7095;51.388;6.196;2023-03-25T12:38:22;54529.06;;;-145.32;100.00
14041;BME280;7095;51.388;6.196;2023-03-25T12:41:02;54505.22;;;-145.32;100.00
14041;BME280;7095;51.388;6.196;2023-03-25T12:43:43;54517.16;;;-145.32;100.00
14041;BME280;7095;51.388;6.196;2023-03-25T12:46:28;54552.94;;;-145.32;100.00
14041;BME280;7095;51.388;6.196;2023-03-25T12:49:13;54425.66;;;-145.32;100.00
14041;BME280;7095;51.388;6.196;2023-03-25T12:51:51;54316.28;;;-145.32;100.00
14041;BME280;7095;51.388;6.196;2023-03-25T12:54:30;54228.81;;;-145.32;100.00
14041;BME280;7095;51.388;6.196;2023-03-25T12:57:14;54024.00;;;-145.32;100.00
14041;BME280;7095;51.388;6.196;2023-03-25T13:00:02;54014.06;;;-145.32;100.00
14041;BME280;7095;51.388;6.196;2023-03-25T13:03:01;53962.34;;;-145.32;100.00
14041;BME280;7095;51.388;6.196;2023-03-25T13:05:38;54027.97;;;-145.32;100.00
14041;BME280;7095;51.388;6.196;2023-03-25T13:08:13;54085.63;;;-145.32;100.00
14041;BME280;7095;51.388;6.196;2023-03-25T13:10:47;54155.22;;;-145.32;100.00
14041;BME280;7095;51.388;6.196;2023-03-25T13:13:19;54183.06;;;-145.32;100.00
14041;BME280;7095;51.388;6.196;2023-03-25T13:15:58;54222.84;;;-145.32;100.00
14041;BME280;7095;51.388;6.196;2023-03-25T13:18:32;54320.28;;;-145.32;100.00
14041;BME280;7095;51.388;6.196;2023-03-25T13:21:06;54346.13;;;-145.32;100.00
14041;BME280;7095;51.388;6.196;2023-03-25T13:23:41;54523.09;;;-145.32;100.00